sensor_id;sensor_type;location;lat;lon;timestamp;P1;durP1;ratioP1;P2;durP2;ratioP2
4698;SDS011;33708;49.466;11.176;2022-07-10T00:01:08;13.33;;;4.03;;
4698;SDS011;33708;49.466;11.176;2022-07-10T00:03:34;10.87;;;4.07;;
4698;SDS011;33708;49.466;11.176;2022-07-10T00:05:59;7.20;;;3.80;;
4698;SDS011;33708;49.466;11.176;2022-07-10T00:08:26;7.23;;;4.23;;
4698;SDS011;33708;49.466;11.176;2022-07-10T00:10:51;6.63;;;4.10;;
4698;SDS011;33708;49.466;11.176;2022-07-10T00:13:17;10.20;;;4.87;;
4698;SDS011;33708;49.466;11.176;2022-07-10T00:15:43;9.37;;;4.30;;
4698;SDS011;33708;49.466;11.176;2022-07-10T00:18:09;14.57;;;5.60;;
4698;SDS011;33708;49.466;11.176;2022-07-10T00:20:34;8.50;;;4.90;;
4698;SDS011;33708;49.466;11.176;2022-07-10T00:23:01;8.70;;;4.47;;
4698;SDS011;33708;49.466;11.176;2022-07-10T00:25:26;9.40;;;4.03;;
4698;SDS011;33708;49.466;11.176;2022-07-10T00:27:52;7.83;;;4.67;;
4698;SDS011;33708;49.466;11.176;2022-07-10T00:30:18;8.03;;;4.57;;
4698;SDS011;33708;49.466;11.176;2022-07-10T00:32:44;10.53;;;5.20;;
4698;SDS011;33708;49.466;11.176;2022-07-10T00:35:09;7.73;;;4.90;;
4698;SDS011;33708;49.466;11.176;2022-07-10T00:37:35;10.57;;;4.10;;
4698;SDS011;33708;49.466;11.176;2022-07-10T00:40:01;10.30;;;4.63;;
4698;SDS011;33708;49.466;11.176;2022-07-10T00:42:29;11.20;;;4.83;;
4698;SDS011;33708;49.466;11.176;2022-07-10T00:44:55;7.70;;;4.13;;
4698;SDS011;33708;49.466;11.176;2022-07-10T00:47:24;7.30;;;4.53;;
4698;SDS011;33708;49.466;11.176;2022-07-10T00:49:50;8.67;;;3.93;;
4698;SDS011;33708;49.466;11.176;2022-07-10T00:52:16;9.53;;;3.50;;
4698;SDS011;33708;49.466;11.176;2022-07-10T00:54:44;6.90;;;4.23;;
4698;SDS011;33708;49.466;11.176;2022-07-10T00:57:13;6.90;;;3.83;;
4698;SDS011;33708;49.466;11.176;2022-07-10T00:59:41;8.43;;;4.23;;
4698;SDS011;33708;49.466;11.176;2022-07-10T01:02:08;7.30;;;3.90;;
4698;SDS011;33708;49.466;11.176;2022-07-10T01:04:35;7.10;;;3.80;;
4698;SDS011;33708;49.466;11.176;2022-07-10T01:07:00;9.80;;;4.20;;
4698;SDS011;33708;49.466;11.176;2022-07-10T01:09:27;9.83;;;4.50;;
4698;SDS011;33708;49.466;11.176;2022-07-10T01:11:56;8.07;;;4.67;;
4698;SDS011;33708;49.466;11.176;2022-07-10T01:14:24;7.87;;;4.80;;
4698;SDS011;33708;49.466;11.176;2022-07-10T01:16:50;8.40;;;4.67;;
4698;SDS011;33708;49.466;11.176;2022-07-10T01:19:17;7.80;;;4.73;;
4698;SDS011;33708;49.466;11.176;2022-07-10T01:21:46;8.43;;;4.70;;
4698;SDS011;33708;49.466;11.176;2022-07-10T01:24:12;8.00;;;4.93;;
4698;SDS011;33708;49.466;11.176;2022-07-10T01:26:37;11.33;;;5.73;;
4698;SDS011;33708;49.466;11.176;2022-07-10T01:29:08;8.90;;;5.50;;
4698;SDS011;33708;49.466;11.176;2022-07-10T01:31:34;9.87;;;5.40;;
4698;SDS011;33708;49.466;11.176;2022-07-10T01:34:01;9.37;;;6.07;;
4698;SDS011;33708;49.466;11.176;2022-07-10T01:36:29;8.30;;;5.50;;
4698;SDS011;33708;49.466;11.176;2022-07-10T01:38:55;7.67;;;5.40;;
4698;SDS011;33708;49.466;11.176;2022-07-10T01:41:22;12.13;;;6.27;;
4698;SDS011;33708;49.466;11.176;2022-07-10T01:43:48;8.33;;;5.60;;
4698;SDS011;33708;49.466;11.176;2022-07-10T01:46:15;16.20;;;5.50;;
4698;SDS011;33708;49.466;11.176;2022-07-10T01:48:41;11.70;;;5.77;;
4698;SDS011;33708;49.466;11.176;2022-07-10T01:51:08;8.13;;;5.47;;
4698;SDS011;33708;49.466;11.176;2022-07-10T01:53:35;10.30;;;6.67;;
4698;SDS011;33708;49.466;11.176;2022-07-10T01:56:03;9.30;;;6.37;;
4698;SDS011;33708;49.466;11.176;2022-07-10T01:58:31;8.53;;;5.47;;
4698;SDS011;33708;49.466;11.176;2022-07-10T02:00:57;9.33;;;5.23;;
4698;SDS011;33708;49.466;11.176;2022-07-10T02:03:22;15.80;;;5.90;;
4698;SDS011;33708;49.466;11.176;2022-07-10T02:06:07;13.57;;;6.60;;
4698;SDS011;33708;49.466;11.176;2022-07-10T02:08:32;15.03;;;5.20;;
4698;SDS011;33708;49.466;11.176;2022-07-10T02:10:58;9.53;;;5.87;;
4698;SDS011;33708;49.466;11.176;2022-07-10T02:13:24;8.23;;;5.00;;
4698;SDS011;33708;49.466;11.176;2022-07-10T02:15:52;10.80;;;5.63;;
4698;SDS011;33708;49.466;11.176;2022-07-10T02:18:18;7.97;;;5.33;;
4698;SDS011;33708;49.466;11.176;2022-07-10T02:20:44;13.40;;;6.10;;
4698;SDS011;33708;49.466;11.176;2022-07-10T02:23:10;8.63;;;5.33;;
4698;SDS011;33708;49.466;11.176;2022-07-10T02:25:36;7.33;;;5.03;;
4698;SDS011;33708;49.466;11.176;2022-07-10T02:28:01;10.27;;;5.20;;
4698;SDS011;33708;49.466;11.176;2022-07-10T02:30:27;8.43;;;5.10;;
4698;SDS011;33708;49.466;11.176;2022-07-10T02:32:53;7.83;;;5.07;;
4698;SDS011;33708;49.466;11.176;2022-07-10T02:35:18;9.20;;;5.20;;
4698;SDS011;33708;49.466;11.176;2022-07-10T02:37:44;8.93;;;4.40;;
4698;SDS011;33708;49.466;11.176;2022-07-10T02:40:10;8.10;;;4.60;;
4698;SDS011;33708;49.466;11.176;2022-07-10T02:42:36;6.83;;;4.57;;
4698;SDS011;33708;49.466;11.176;2022-07-10T02:45:02;7.70;;;4.50;;
4698;SDS011;33708;49.466;11.176;2022-07-10T02:47:28;7.70;;;4.20;;
4698;SDS011;33708;49.466;11.176;2022-07-10T02:49:53;8.50;;;4.37;;
4698;SDS011;33708;49.466;11.176;2022-07-10T02:52:19;7.13;;;3.67;;
4698;SDS011;33708;49.466;11.176;2022-07-10T02:54:45;7.33;;;4.87;;
4698;SDS011;33708;49.466;11.176;2022-07-10T02:57:10;6.63;;;4.20;;
4698;SDS011;33708;49.466;11.176;2022-07-10T02:59:36;7.10;;;4.30;;
4698;SDS011;33708;49.466;11.176;2022-07-10T03:02:01;7.83;;;4.20;;
4698;SDS011;33708;49.466;11.176;2022-07-10T03:04:27;7.30;;;4.50;;
4698;SDS011;33708;49.466;11.176;2022-07-10T03:06:53;7.77;;;4.80;;
4698;SDS011;33708;49.466;11.176;2022-07-10T03:09:19;7.70;;;4.93;;
4698;SDS011;33708;49.466;11.176;2022-07-10T03:11:44;8.43;;;4.43;;
4698;SDS011;33708;49.466;11.176;2022-07-10T03:14:10;9.50;;;4.33;;
4698;SDS011;33708;49.466;11.176;2022-07-10T03:16:36;9.00;;;4.23;;
4698;SDS011;33708;49.466;11.176;2022-07-10T03:19:02;8.03;;;4.17;;
4698;SDS011;33708;49.466;11.176;2022-07-10T03:21:29;11.17;;;5.13;;
4698;SDS011;33708;49.466;11.176;2022-07-10T03:23:56;10.40;;;4.40;;
4698;SDS011;33708;49.466;11.176;2022-07-10T03:26:21;9.43;;;4.40;;
4698;SDS011;33708;49.466;11.176;2022-07-10T03:28:47;9.63;;;4.73;;
4698;SDS011;33708;49.466;11.176;2022-07-10T03:31:12;16.83;;;4.33;;
4698;SDS011;33708;49.466;11.176;2022-07-10T03:33:38;9.70;;;4.00;;
4698;SDS011;33708;49.466;11.176;2022-07-10T03:36:04;12.97;;;3.80;;
4698;SDS011;33708;49.466;11.176;2022-07-10T03:38:30;10.30;;;3.90;;
4698;SDS011;33708;49.466;11.176;2022-07-10T03:40:56;7.70;;;3.40;;
4698;SDS011;33708;49.466;11.176;2022-07-10T03:43:21;9.73;;;3.90;;
4698;SDS011;33708;49.466;11.176;2022-07-10T03:45:47;9.20;;;3.50;;
4698;SDS011;33708;49.466;11.176;2022-07-10T03:48:12;8.77;;;3.73;;
4698;SDS011;33708;49.466;11.176;2022-07-10T03:50:38;12.87;;;4.37;;
4698;SDS011;33708;49.466;11.176;2022-07-10T03:53:03;11.30;;;3.10;;
4698;SDS011;33708;49.466;11.176;2022-07-10T03:55:29;6.03;;;3.10;;
4698;SDS011;33708;49.466;11.176;2022-07-10T03:57:55;8.43;;;3.23;;
4698;SDS011;33708;49.466;11.176;2022-07-10T04:00:27;6.07;;;2.60;;
4698;SDS011;33708;49.466;11.176;2022-07-10T04:03:00;11.23;;;3.20;;
4698;SDS011;33708;49.466;11.176;2022-07-10T04:05:31;16.67;;;11.60;;
4698;SDS011;33708;49.466;11.176;2022-07-10T04:08:00;17.60;;;16.00;;
4698;SDS011;33708;49.466;11.176;2022-07-10T04:10:27;33.67;;;11.57;;
4698;SDS011;33708;49.466;11.176;2022-07-10T04:12:54;9.77;;;6.57;;
4698;SDS011;33708;49.466;11.176;2022-07-10T04:15:20;8.00;;;2.33;;
4698;SDS011;33708;49.466;11.176;2022-07-10T04:17:47;9.57;;;2.60;;
4698;SDS011;33708;49.466;11.176;2022-07-10T04:20:13;12.47;;;2.70;;
4698;SDS011;33708;49.466;11.176;2022-07-10T04:22:39;7.67;;;2.13;;
4698;SDS011;33708;49.466;11.176;2022-07-10T04:25:05;7.20;;;2.20;;
4698;SDS011;33708;49.466;11.176;2022-07-10T04:27:31;7.17;;;2.33;;
4698;SDS011;33708;49.466;11.176;2022-07-10T04:29:57;7.63;;;1.93;;
4698;SDS011;33708;49.466;11.176;2022-07-10T04:32:23;8.60;;;2.53;;
4698;SDS011;33708;49.466;11.176;2022-07-10T04:34:49;11.37;;;2.43;;
4698;SDS011;33708;49.466;11.176;2022-07-10T04:37:15;6.60;;;2.00;;
4698;SDS011;33708;49.466;11.176;2022-07-10T04:39:41;7.50;;;2.30;;
4698;SDS011;33708;49.466;11.176;2022-07-10T04:42:08;5.90;;;1.80;;
4698;SDS011;33708;49.466;11.176;2022-07-10T04:44:34;6.10;;;1.80;;
4698;SDS011;33708;49.466;11.176;2022-07-10T04:47:03;5.77;;;1.50;;
4698;SDS011;33708;49.466;11.176;2022-07-10T04:49:30;10.43;;;2.10;;
4698;SDS011;33708;49.466;11.176;2022-07-10T04:51:56;7.07;;;1.90;;
4698;SDS011;33708;49.466;11.176;2022-07-10T04:54:22;6.80;;;1.70;;
4698;SDS011;33708;49.466;11.176;2022-07-10T04:56:48;8.70;;;1.80;;
4698;SDS011;33708;49.466;11.176;2022-07-10T04:59:14;8.07;;;2.20;;
4698;SDS011;33708;49.466;11.176;2022-07-10T05:01:40;7.33;;;1.70;;
4698;SDS011;33708;49.466;11.176;2022-07-10T05:04:05;6.40;;;1.80;;
4698;SDS011;33708;49.466;11.176;2022-07-10T05:06:31;7.33;;;2.00;;
4698;SDS011;33708;49.466;11.176;2022-07-10T05:08:57;11.50;;;1.77;;
4698;SDS011;33708;49.466;11.176;2022-07-10T05:11:22;9.90;;;1.83;;
4698;SDS011;33708;49.466;11.176;2022-07-10T05:13:49;7.83;;;1.57;;
4698;SDS011;33708;49.466;11.176;2022-07-10T05:16:15;7.30;;;1.60;;
4698;SDS011;33708;49.466;11.176;2022-07-10T05:18:41;9.10;;;1.90;;
4698;SDS011;33708;49.466;11.176;2022-07-10T05:21:07;6.43;;;1.50;;
4698;SDS011;33708;49.466;11.176;2022-07-10T05:23:32;9.10;;;1.63;;
4698;SDS011;33708;49.466;11.176;2022-07-10T05:25:58;7.87;;;1.90;;
4698;SDS011;33708;49.466;11.176;2022-07-10T05:28:24;7.30;;;1.60;;
4698;SDS011;33708;49.466;11.176;2022-07-10T05:30:49;7.17;;;1.57;;
4698;SDS011;33708;49.466;11.176;2022-07-10T05:33:16;7.50;;;1.60;;
4698;SDS011;33708;49.466;11.176;2022-07-10T05:35:42;11.33;;;1.70;;
4698;SDS011;33708;49.466;11.176;2022-07-10T05:38:07;8.50;;;1.90;;
4698;SDS011;33708;49.466;11.176;2022-07-10T05:40:33;9.00;;;2.23;;
4698;SDS011;33708;49.466;11.176;2022-07-10T05:42:59;5.20;;;1.43;;
4698;SDS011;33708;49.466;11.176;2022-07-10T05:45:25;8.00;;;1.70;;
4698;SDS011;33708;49.466;11.176;2022-07-10T05:47:50;11.37;;;2.20;;
4698;SDS011;33708;49.466;11.176;2022-07-10T05:50:16;11.67;;;1.40;;
4698;SDS011;33708;49.466;11.176;2022-07-10T05:52:42;8.40;;;1.83;;
4698;SDS011;33708;49.466;11.176;2022-07-10T05:55:08;6.00;;;1.33;;
4698;SDS011;33708;49.466;11.176;2022-07-10T05:57:34;9.17;;;1.50;;
4698;SDS011;33708;49.466;11.176;2022-07-10T06:00:00;10.17;;;2.03;;
4698;SDS011;33708;49.466;11.176;2022-07-10T06:02:28;6.43;;;1.50;;
4698;SDS011;33708;49.466;11.176;2022-07-10T06:04:54;7.17;;;1.80;;
4698;SDS011;33708;49.466;11.176;2022-07-10T06:07:20;9.03;;;1.80;;
4698;SDS011;33708;49.466;11.176;2022-07-10T06:09:45;7.00;;;1.30;;
4698;SDS011;33708;49.466;11.176;2022-07-10T06:12:11;7.40;;;1.33;;
4698;SDS011;33708;49.466;11.176;2022-07-10T06:14:37;9.60;;;1.90;;
4698;SDS011;33708;49.466;11.176;2022-07-10T06:17:02;6.27;;;1.23;;
4698;SDS011;33708;49.466;11.176;2022-07-10T06:19:28;12.43;;;1.57;;
4698;SDS011;33708;49.466;11.176;2022-07-10T06:21:54;11.17;;;1.53;;
4698;SDS011;33708;49.466;11.176;2022-07-10T06:24:38;6.97;;;1.83;;
4698;SDS011;33708;49.466;11.176;2022-07-10T06:27:04;9.30;;;1.30;;
4698;SDS011;33708;49.466;11.176;2022-07-10T06:29:30;5.00;;;1.30;;
4698;SDS011;33708;49.466;11.176;2022-07-10T06:31:56;5.50;;;1.13;;
4698;SDS011;33708;49.466;11.176;2022-07-10T06:34:22;11.00;;;1.70;;
4698;SDS011;33708;49.466;11.176;2022-07-10T06:36:47;8.37;;;1.57;;
4698;SDS011;33708;49.466;11.176;2022-07-10T06:39:13;5.70;;;1.30;;
4698;SDS011;33708;49.466;11.176;2022-07-10T06:41:39;11.87;;;1.80;;
4698;SDS011;33708;49.466;11.176;2022-07-10T06:44:04;7.03;;;1.20;;
4698;SDS011;33708;49.466;11.176;2022-07-10T06:46:30;10.30;;;1.30;;
4698;SDS011;33708;49.466;11.176;2022-07-10T06:48:57;7.30;;;1.60;;
4698;SDS011;33708;49.466;11.176;2022-07-10T06:51:24;6.47;;;1.40;;
4698;SDS011;33708;49.466;11.176;2022-07-10T06:53:50;6.53;;;1.33;;
4698;SDS011;33708;49.466;11.176;2022-07-10T06:56:17;6.20;;;1.60;;
4698;SDS011;33708;49.466;11.176;2022-07-10T06:58:43;7.47;;;1.60;;
4698;SDS011;33708;49.466;11.176;2022-07-10T07:01:09;8.90;;;1.20;;
4698;SDS011;33708;49.466;11.176;2022-07-10T07:03:34;9.27;;;2.00;;
4698;SDS011;33708;49.466;11.176;2022-07-10T07:06:00;9.73;;;1.30;;
4698;SDS011;33708;49.466;11.176;2022-07-10T07:08:26;6.50;;;1.40;;
4698;SDS011;33708;49.466;11.176;2022-07-10T07:10:54;7.63;;;1.50;;
4698;SDS011;33708;49.466;11.176;2022-07-10T07:13:19;8.03;;;1.10;;
4698;SDS011;33708;49.466;11.176;2022-07-10T07:15:48;7.97;;;1.20;;
4698;SDS011;33708;49.466;11.176;2022-07-10T07:18:34;5.70;;;1.40;;
4698;SDS011;33708;49.466;11.176;2022-07-10T07:21:02;8.30;;;1.40;;
4698;SDS011;33708;49.466;11.176;2022-07-10T07:23:46;10.33;;;1.40;;
4698;SDS011;33708;49.466;11.176;2022-07-10T07:26:12;10.23;;;1.60;;
4698;SDS011;33708;49.466;11.176;2022-07-10T07:28:38;6.03;;;1.00;;
4698;SDS011;33708;49.466;11.176;2022-07-10T07:31:03;4.93;;;1.03;;
4698;SDS011;33708;49.466;11.176;2022-07-10T07:33:29;12.57;;;1.10;;
4698;SDS011;33708;49.466;11.176;2022-07-10T07:35:55;4.77;;;0.90;;
4698;SDS011;33708;49.466;11.176;2022-07-10T07:38:21;5.63;;;1.00;;
4698;SDS011;33708;49.466;11.176;2022-07-10T07:40:47;5.60;;;1.03;;
4698;SDS011;33708;49.466;11.176;2022-07-10T07:43:12;8.40;;;1.20;;
4698;SDS011;33708;49.466;11.176;2022-07-10T07:45:38;5.27;;;1.23;;
4698;SDS011;33708;49.466;11.176;2022-07-10T07:48:04;6.90;;;1.30;;
4698;SDS011;33708;49.466;11.176;2022-07-10T07:50:31;4.63;;;1.13;;
4698;SDS011;33708;49.466;11.176;2022-07-10T07:52:58;6.10;;;0.90;;
4698;SDS011;33708;49.466;11.176;2022-07-10T07:55:25;5.67;;;1.20;;
4698;SDS011;33708;49.466;11.176;2022-07-10T07:57:52;4.43;;;0.80;;
4698;SDS011;33708;49.466;11.176;2022-07-10T08:00:19;9.83;;;1.63;;
4698;SDS011;33708;49.466;11.176;2022-07-10T08:02:47;6.80;;;1.00;;
4698;SDS011;33708;49.466;11.176;2022-07-10T08:05:13;7.90;;;1.20;;
4698;SDS011;33708;49.466;11.176;2022-07-10T08:07:42;6.40;;;1.23;;
4698;SDS011;33708;49.466;11.176;2022-07-10T08:10:10;6.53;;;1.37;;
4698;SDS011;33708;49.466;11.176;2022-07-10T08:12:39;5.97;;;1.07;;
4698;SDS011;33708;49.466;11.176;2022-07-10T08:15:10;5.80;;;0.97;;
4698;SDS011;33708;49.466;11.176;2022-07-10T08:17:36;6.03;;;1.00;;
4698;SDS011;33708;49.466;11.176;2022-07-10T08:20:03;5.00;;;0.97;;
4698;SDS011;33708;49.466;11.176;2022-07-10T08:22:30;4.30;;;0.70;;
4698;SDS011;33708;49.466;11.176;2022-07-10T08:24:56;6.60;;;0.70;;
4698;SDS011;33708;49.466;11.176;2022-07-10T08:27:21;6.37;;;1.17;;
4698;SDS011;33708;49.466;11.176;2022-07-10T08:29:47;5.80;;;0.93;;
4698;SDS011;33708;49.466;11.176;2022-07-10T08:32:13;6.70;;;0.77;;
4698;SDS011;33708;49.466;11.176;2022-07-10T08:34:39;4.13;;;0.87;;
4698;SDS011;33708;49.466;11.176;2022-07-10T08:37:04;5.53;;;0.93;;
4698;SDS011;33708;49.466;11.176;2022-07-10T08:39:30;5.73;;;1.00;;
4698;SDS011;33708;49.466;11.176;2022-07-10T08:41:56;12.40;;;1.10;;
4698;SDS011;33708;49.466;11.176;2022-07-10T08:44:23;4.70;;;1.00;;
4698;SDS011;33708;49.466;11.176;2022-07-10T08:46:48;7.53;;;1.00;;
4698;SDS011;33708;49.466;11.176;2022-07-10T08:49:14;5.67;;;1.33;;
4698;SDS011;33708;49.466;11.176;2022-07-10T08:51:50;5.83;;;1.20;;
4698;SDS011;33708;49.466;11.176;2022-07-10T08:54:31;6.40;;;1.00;;
4698;SDS011;33708;49.466;11.176;2022-07-10T08:56:58;5.13;;;1.00;;
4698;SDS011;33708;49.466;11.176;2022-07-10T08:59:25;7.73;;;1.13;;
4698;SDS011;33708;49.466;11.176;2022-07-10T09:01:52;8.40;;;1.00;;
4698;SDS011;33708;49.466;11.176;2022-07-10T09:04:21;7.70;;;1.03;;
4698;SDS011;33708;49.466;11.176;2022-07-10T09:06:52;16.63;;;0.90;;
4698;SDS011;33708;49.466;11.176;2022-07-10T09:09:18;4.50;;;0.87;;
4698;SDS011;33708;49.466;11.176;2022-07-10T09:11:45;5.77;;;1.17;;
4698;SDS011;33708;49.466;11.176;2022-07-10T09:14:11;5.63;;;0.90;;
4698;SDS011;33708;49.466;11.176;2022-07-10T09:16:43;5.87;;;0.80;;
4698;SDS011;33708;49.466;11.176;2022-07-10T09:19:20;7.40;;;1.10;;
4698;SDS011;33708;49.466;11.176;2022-07-10T09:21:51;6.63;;;1.00;;
4698;SDS011;33708;49.466;11.176;2022-07-10T09:24:19;5.90;;;1.13;;
4698;SDS011;33708;49.466;11.176;2022-07-10T09:29:23;4.67;;;0.70;;
4698;SDS011;33708;49.466;11.176;2022-07-10T09:31:53;6.20;;;1.07;;
4698;SDS011;33708;49.466;11.176;2022-07-10T09:37:27;4.27;;;0.70;;
4698;SDS011;33708;49.466;11.176;2022-07-10T09:47:52;4.80;;;1.03;;
4698;SDS011;33708;49.466;11.176;2022-07-10T09:50:35;4.27;;;0.70;;
4698;SDS011;33708;49.466;11.176;2022-07-10T09:53:02;3.90;;;0.60;;
4698;SDS011;33708;49.466;11.176;2022-07-10T09:55:30;3.70;;;0.60;;
4698;SDS011;33708;49.466;11.176;2022-07-10T09:57:59;3.73;;;0.70;;
4698;SDS011;33708;49.466;11.176;2022-07-10T10:00:27;5.63;;;0.80;;
4698;SDS011;33708;49.466;11.176;2022-07-10T10:02:54;4.90;;;1.07;;
4698;SDS011;33708;49.466;11.176;2022-07-10T10:05:24;6.23;;;1.00;;
4698;SDS011;33708;49.466;11.176;2022-07-10T10:07:58;5.03;;;1.00;;
4698;SDS011;33708;49.466;11.176;2022-07-10T10:10:37;4.00;;;0.67;;
4698;SDS011;33708;49.466;11.176;2022-07-10T10:13:08;7.17;;;0.83;;
4698;SDS011;33708;49.466;11.176;2022-07-10T10:15:36;6.23;;;1.00;;
4698;SDS011;33708;49.466;11.176;2022-07-10T10:18:02;4.53;;;0.60;;
4698;SDS011;33708;49.466;11.176;2022-07-10T10:20:31;5.70;;;0.90;;
4698;SDS011;33708;49.466;11.176;2022-07-10T10:23:10;11.50;;;1.00;;
4698;SDS011;33708;49.466;11.176;2022-07-10T10:25:38;4.43;;;0.87;;
4698;SDS011;33708;49.466;11.176;2022-07-10T10:28:08;6.20;;;1.13;;
4698;SDS011;33708;49.466;11.176;2022-07-10T10:30:39;4.67;;;1.03;;
4698;SDS011;33708;49.466;11.176;2022-07-10T10:35:57;4.50;;;0.80;;
4698;SDS011;33708;49.466;11.176;2022-07-10T10:38:24;4.80;;;0.90;;
4698;SDS011;33708;49.466;11.176;2022-07-10T10:40:49;8.70;;;1.10;;
4698;SDS011;33708;49.466;11.176;2022-07-10T10:43:16;4.90;;;0.93;;
4698;SDS011;33708;49.466;11.176;2022-07-10T10:45:42;5.13;;;0.80;;
4698;SDS011;33708;49.466;11.176;2022-07-10T10:48:10;7.60;;;1.20;;
4698;SDS011;33708;49.466;11.176;2022-07-10T10:50:46;6.23;;;1.20;;
4698;SDS011;33708;49.466;11.176;2022-07-10T10:53:13;7.00;;;1.30;;
4698;SDS011;33708;49.466;11.176;2022-07-10T10:55:41;9.47;;;0.93;;
4698;SDS011;33708;49.466;11.176;2022-07-10T10:58:29;7.43;;;1.13;;
4698;SDS011;33708;49.466;11.176;2022-07-10T11:01:04;4.90;;;0.80;;
4698;SDS011;33708;49.466;11.176;2022-07-10T11:03:30;5.70;;;0.90;;
4698;SDS011;33708;49.466;11.176;2022-07-10T11:05:56;3.80;;;0.77;;
4698;SDS011;33708;49.466;11.176;2022-07-10T11:08:35;12.77;;;1.00;;
4698;SDS011;33708;49.466;11.176;2022-07-10T11:11:04;8.17;;;1.23;;
4698;SDS011;33708;49.466;11.176;2022-07-10T11:13:56;7.13;;;1.23;;
4698;SDS011;33708;49.466;11.176;2022-07-10T11:16:23;7.77;;;1.03;;
4698;SDS011;33708;49.466;11.176;2022-07-10T11:18:54;4.67;;;1.00;;
4698;SDS011;33708;49.466;11.176;2022-07-10T11:21:23;5.63;;;0.90;;
4698;SDS011;33708;49.466;11.176;2022-07-10T11:26:37;10.50;;;0.90;;
4698;SDS011;33708;49.466;11.176;2022-07-10T11:29:11;6.13;;;0.87;;
4698;SDS011;33708;49.466;11.176;2022-07-10T11:31:37;4.87;;;1.10;;
4698;SDS011;33708;49.466;11.176;2022-07-10T11:34:09;7.30;;;1.20;;
4698;SDS011;33708;49.466;11.176;2022-07-10T11:36:37;4.80;;;0.87;;
4698;SDS011;33708;49.466;11.176;2022-07-10T11:39:05;6.53;;;1.20;;
4698;SDS011;33708;49.466;11.176;2022-07-10T11:41:33;7.07;;;1.20;;
4698;SDS011;33708;49.466;11.176;2022-07-10T11:44:06;6.60;;;1.17;;
4698;SDS011;33708;49.466;11.176;2022-07-10T11:46:37;5.13;;;0.88;;
4698;SDS011;33708;49.466;11.176;2022-07-10T11:49:03;5.83;;;1.17;;
4698;SDS011;33708;49.466;11.176;2022-07-10T11:56:32;5.30;;;1.10;;
4698;SDS011;33708;49.466;11.176;2022-07-10T11:59:02;6.20;;;1.23;;
4698;SDS011;33708;49.466;11.176;2022-07-10T12:01:30;6.33;;;1.50;;
4698;SDS011;33708;49.466;11.176;2022-07-10T12:06:31;6.73;;;1.50;;
4698;SDS011;33708;49.466;11.176;2022-07-10T12:09:06;3.83;;;0.70;;
4698;SDS011;33708;49.466;11.176;2022-07-10T12:11:33;4.03;;;0.90;;
4698;SDS011;33708;49.466;11.176;2022-07-10T12:14:12;5.63;;;1.23;;
4698;SDS011;33708;49.466;11.176;2022-07-10T12:16:44;5.60;;;1.43;;
4698;SDS011;33708;49.466;11.176;2022-07-10T12:19:11;4.90;;;1.00;;
4698;SDS011;33708;49.466;11.176;2022-07-10T12:21:40;5.00;;;0.83;;
4698;SDS011;33708;49.466;11.176;2022-07-10T12:24:07;4.17;;;0.73;;
4698;SDS011;33708;49.466;11.176;2022-07-10T12:26:34;5.07;;;0.90;;
4698;SDS011;33708;49.466;11.176;2022-07-10T12:29:02;7.73;;;1.60;;
4698;SDS011;33708;49.466;11.176;2022-07-10T12:31:29;5.20;;;1.10;;
4698;SDS011;33708;49.466;11.176;2022-07-10T12:34:00;3.63;;;0.63;;
4698;SDS011;33708;49.466;11.176;2022-07-10T12:36:41;4.47;;;0.83;;
4698;SDS011;33708;49.466;11.176;2022-07-10T12:39:12;4.00;;;0.80;;
4698;SDS011;33708;49.466;11.176;2022-07-10T12:42:02;3.80;;;0.70;;
4698;SDS011;33708;49.466;11.176;2022-07-10T12:44:29;4.55;;;0.90;;
4698;SDS011;33708;49.466;11.176;2022-07-10T12:47:00;3.77;;;0.90;;
4698;SDS011;33708;49.466;11.176;2022-07-10T12:49:27;4.90;;;0.97;;
4698;SDS011;33708;49.466;11.176;2022-07-10T12:51:52;4.70;;;1.10;;
4698;SDS011;33708;49.466;11.176;2022-07-10T12:54:33;7.60;;;3.57;;
4698;SDS011;33708;49.466;11.176;2022-07-10T12:57:00;21.00;;;12.40;;
4698;SDS011;33708;49.466;11.176;2022-07-10T12:59:27;6.37;;;1.80;;
4698;SDS011;33708;49.466;11.176;2022-07-10T13:01:56;4.40;;;0.80;;
4698;SDS011;33708;49.466;11.176;2022-07-10T13:04:24;13.17;;;0.90;;
4698;SDS011;33708;49.466;11.176;2022-07-10T13:06:53;9.60;;;1.03;;
4698;SDS011;33708;49.466;11.176;2022-07-10T13:09:23;4.60;;;0.90;;
4698;SDS011;33708;49.466;11.176;2022-07-10T13:11:50;6.23;;;1.30;;
4698;SDS011;33708;49.466;11.176;2022-07-10T13:14:17;5.37;;;1.50;;
4698;SDS011;33708;49.466;11.176;2022-07-10T13:16:44;8.30;;;1.00;;
4698;SDS011;33708;49.466;11.176;2022-07-10T13:19:10;5.77;;;1.20;;
4698;SDS011;33708;49.466;11.176;2022-07-10T13:21:36;6.10;;;1.00;;
4698;SDS011;33708;49.466;11.176;2022-07-10T13:24:02;6.07;;;0.70;;
4698;SDS011;33708;49.466;11.176;2022-07-10T13:26:30;8.83;;;1.10;;
4698;SDS011;33708;49.466;11.176;2022-07-10T13:28:57;4.80;;;0.73;;
4698;SDS011;33708;49.466;11.176;2022-07-10T13:31:24;4.30;;;0.77;;
4698;SDS011;33708;49.466;11.176;2022-07-10T13:33:50;6.30;;;1.00;;
4698;SDS011;33708;49.466;11.176;2022-07-10T13:36:15;4.30;;;0.73;;
4698;SDS011;33708;49.466;11.176;2022-07-10T13:38:41;5.03;;;1.13;;
4698;SDS011;33708;49.466;11.176;2022-07-10T13:41:07;4.63;;;0.70;;
4698;SDS011;33708;49.466;11.176;2022-07-10T13:43:33;3.93;;;0.90;;
4698;SDS011;33708;49.466;11.176;2022-07-10T13:46:00;4.30;;;0.80;;
4698;SDS011;33708;49.466;11.176;2022-07-10T13:48:26;10.03;;;0.90;;
4698;SDS011;33708;49.466;11.176;2022-07-10T13:50:52;7.10;;;0.90;;
4698;SDS011;33708;49.466;11.176;2022-07-10T13:53:18;5.07;;;0.70;;
4698;SDS011;33708;49.466;11.176;2022-07-10T13:55:45;4.77;;;0.90;;
4698;SDS011;33708;49.466;11.176;2022-07-10T13:58:11;6.97;;;0.90;;
4698;SDS011;33708;49.466;11.176;2022-07-10T14:00:38;7.40;;;0.90;;
4698;SDS011;33708;49.466;11.176;2022-07-10T14:03:04;5.33;;;0.60;;
4698;SDS011;33708;49.466;11.176;2022-07-10T14:05:32;4.93;;;0.80;;
4698;SDS011;33708;49.466;11.176;2022-07-10T14:07:58;6.43;;;0.80;;
4698;SDS011;33708;49.466;11.176;2022-07-10T14:10:25;4.60;;;0.80;;
4698;SDS011;33708;49.466;11.176;2022-07-10T14:12:55;5.33;;;0.80;;
4698;SDS011;33708;49.466;11.176;2022-07-10T14:15:21;4.43;;;0.80;;
4698;SDS011;33708;49.466;11.176;2022-07-10T14:17:47;7.63;;;0.70;;
4698;SDS011;33708;49.466;11.176;2022-07-10T14:20:13;4.53;;;0.80;;
4698;SDS011;33708;49.466;11.176;2022-07-10T14:22:39;4.17;;;0.90;;
4698;SDS011;33708;49.466;11.176;2022-07-10T14:25:05;5.47;;;1.00;;
4698;SDS011;33708;49.466;11.176;2022-07-10T14:27:31;4.07;;;0.97;;
4698;SDS011;33708;49.466;11.176;2022-07-10T14:29:57;4.57;;;1.03;;
4698;SDS011;33708;49.466;11.176;2022-07-10T14:32:23;3.90;;;0.73;;
4698;SDS011;33708;49.466;11.176;2022-07-10T14:34:49;5.23;;;0.90;;
4698;SDS011;33708;49.466;11.176;2022-07-10T14:37:15;6.83;;;1.00;;
4698;SDS011;33708;49.466;11.176;2022-07-10T14:39:40;5.77;;;1.07;;
4698;SDS011;33708;49.466;11.176;2022-07-10T14:42:07;4.57;;;0.70;;
4698;SDS011;33708;49.466;11.176;2022-07-10T14:44:34;6.00;;;1.00;;
4698;SDS011;33708;49.466;11.176;2022-07-10T14:47:00;6.70;;;1.08;;
4698;SDS011;33708;49.466;11.176;2022-07-10T14:49:25;5.07;;;1.00;;
4698;SDS011;33708;49.466;11.176;2022-07-10T14:51:51;6.23;;;1.03;;
4698;SDS011;33708;49.466;11.176;2022-07-10T14:54:17;4.60;;;0.70;;
4698;SDS011;33708;49.466;11.176;2022-07-10T14:56:42;3.97;;;0.77;;
4698;SDS011;33708;49.466;11.176;2022-07-10T14:59:09;5.07;;;0.90;;
4698;SDS011;33708;49.466;11.176;2022-07-10T15:01:35;6.17;;;0.80;;
4698;SDS011;33708;49.466;11.176;2022-07-10T15:04:01;6.40;;;1.30;;
4698;SDS011;33708;49.466;11.176;2022-07-10T15:06:27;6.20;;;0.80;;
4698;SDS011;33708;49.466;11.176;2022-07-10T15:08:52;5.97;;;1.23;;
4698;SDS011;33708;49.466;11.176;2022-07-10T15:11:18;5.80;;;1.23;;
4698;SDS011;33708;49.466;11.176;2022-07-10T15:13:47;6.80;;;0.80;;